| time (UTC) | temp F | wind direction | speed MPH | gust MPH | rain 1hr in | rain 24hr in | rain mn in | humidity % | barometer mb |
| 20260509064534 | 55 | 89 | 4.0 | 0.0 | 0.00 | 0.00 | 0.00 | 43 | 1015.5 |
| 20260509063030 | 53 | 170 | 6.0 | 0.0 | 0.00 | 0.00 | 0.00 | 44 | 1015.6 |
| 20260509061529 | 53 | 132 | 6.0 | 0.0 | 0.00 | 0.00 | 0.00 | 44 | 1015.5 |
| 20260509060027 | 53 | 116 | 7.0 | 0.0 | 0.00 | 0.00 | 0.00 | 45 | 1015.4 |
| 20260509054538 | 52 | 113 | 7.0 | 0.0 | 0.00 | 0.00 | 0.00 | 45 | 1015.5 |
| 20260509053059 | 52 | 155 | 5.0 | 0.0 | 0.00 | 0.00 | 0.00 | 47 | 1015.4 |
| 20260509051526 | 52 | 98 | 7.0 | 0.0 | 0.00 | 0.00 | 0.00 | 46 | 1015.4 |
| 20260509050036 | 52 | 102 | 7.0 | 0.0 | 0.00 | 0.00 | 0.00 | 47 | 1015.4 |
| 20260509044519 | 51 | 76 | 6.0 | 0.0 | 0.00 | 0.00 | 0.00 | 48 | 1015.4 |
| 20260509043018 | 51 | 88 | 7.0 | 0.0 | 0.00 | 0.00 | 0.00 | 49 | 1015.5 |
| 20260509041516 | 50 | 118 | 7.0 | 0.0 | 0.00 | 0.00 | 0.00 | 49 | 1015.6 |
| 20260509040016 | 50 | 85 | 7.0 | 0.0 | 0.00 | 0.00 | 0.00 | 50 | 1015.7 |
| 20260509034514 | 50 | 149 | 8.0 | 0.0 | 0.00 | 0.00 | 0.00 | 49 | 1015.7 |
| 20260509033013 | 50 | 142 | 7.0 | 0.0 | 0.00 | 0.00 | 0.00 | 48 | 1015.7 |
| 20260509031512 | 50 | 127 | 7.0 | 0.0 | 0.00 | 0.00 | 0.00 | 48 | 1015.8 |
| 20260509030025 | 50 | 128 | 6.0 | 0.0 | 0.00 | 0.00 | 0.00 | 50 | 1016.0 |
| 20260509024511 | 50 | 128 | 8.0 | 0.0 | 0.00 | 0.00 | 0.00 | 50 | 1015.9 |
| 20260509023020 | 49 | 130 | 9.0 | 0.0 | 0.00 | 0.00 | 0.00 | 50 | 1015.9 |
| 20260509021507 | 49 | 74 | 6.0 | 0.0 | 0.00 | 0.00 | 0.00 | 50 | 1016.3 |
| 20260509020006 | 49 | 68 | 4.0 | 0.0 | 0.00 | 0.00 | 0.00 | 51 | 1016.4 |
| 20260509014506 | 50 | 48 | 3.0 | 0.0 | 0.00 | 0.00 | 0.00 | 49 | 1016.5 |
| 20260509013004 | 50 | 93 | 5.0 | 0.0 | 0.00 | 0.00 | 0.00 | 48 | 1016.4 |
| 20260509011505 | 50 | 126 | 7.0 | 0.0 | 0.00 | 0.00 | 0.00 | 48 | 1016.4 |
| 20260509010011 | 50 | 59 | 10.0 | 0.0 | 0.00 | 0.00 | 0.00 | 48 | 1016.4 |
| 20260509004501 | 50 | 153 | 10.0 | 0.0 | 0.00 | 0.00 | 0.00 | 49 | 1016.6 |
| 20260509003133 | 50 | 170 | 10.0 | 0.0 | 0.00 | 0.00 | 0.00 | 49 | 1016.7 |
| 20260509001606 | 50 | 132 | 9.0 | 0.0 | 0.00 | 0.00 | 0.00 | 49 | 1016.8 |
| 20260509000111 | 49 | 132 | 10.0 | 0.0 | 0.00 | 0.00 | 0.00 | 50 | 1016.9 |
| 20260508234554 | 49 | 71 | 9.0 | 0.0 | 0.00 | 0.00 | 0.00 | 50 | 1017.0 |
| 20260508233052 | 49 | 144 | 10.0 | 0.0 | 0.00 | 0.00 | 0.00 | 50 | 1017.1 |
| 20260508231552 | 48 | 92 | 9.0 | 0.0 | 0.00 | 0.00 | 0.00 | 51 | 1017.4 |
| 20260508230046 | 48 | 98 | 8.0 | 0.0 | 0.00 | 0.00 | 0.00 | 51 | 1017.5 |
| 20260508224545 | 47 | 128 | 7.0 | 0.0 | 0.00 | 0.00 | 0.00 | 54 | 1017.9 |
| 20260508223042 | 48 | 119 | 8.0 | 0.0 | 0.00 | 0.00 | 0.00 | 53 | 1018.1 |
| 20260508221537 | 49 | 95 | 9.0 | 0.0 | 0.00 | 0.00 | 0.00 | 48 | 1017.9 |
| 20260508220034 | 48 | 88 | 8.0 | 0.0 | 0.00 | 0.00 | 0.02 | 48 | 1018.1 |
| 20260508214534 | 48 | 129 | 7.0 | 0.0 | 0.00 | 0.00 | 0.02 | 49 | 1018.4 |
| 20260508213034 | 48 | 83 | 7.0 | 0.0 | 0.00 | 0.00 | 0.02 | 47 | 1018.5 |
| 20260508211532 | 48 | 93 | 7.0 | 0.0 | 0.00 | 0.00 | 0.02 | 48 | 1018.3 |
| 20260508210034 | 48 | 85 | 7.0 | 0.0 | 0.00 | 0.00 | 0.02 | 47 | 1018.3 |
| 20260508204532 | 48 | 127 | 7.0 | 0.0 | 0.00 | 0.00 | 0.02 | 48 | 1018.7 |
| 20260508203034 | 47 | 138 | 6.0 | 0.0 | 0.00 | 0.00 | 0.02 | 50 | 1019.0 |
| 20260508201531 | 47 | 86 | 6.0 | 0.0 | 0.00 | 0.00 | 0.02 | 49 | 1019.0 |
| 20260508200035 | 47 | 106 | 6.0 | 0.0 | 0.00 | 0.00 | 0.02 | 47 | 1019.1 |
| 20260508194530 | 48 | 107 | 5.0 | 0.0 | 0.00 | 0.00 | 0.02 | 47 | 1019.1 |
| 20260508193029 | 48 | 113 | 5.0 | 0.0 | 0.00 | 0.00 | 0.02 | 47 | 1019.2 |
| 20260508191529 | 48 | 102 | 5.0 | 0.0 | 0.00 | 0.00 | 0.02 | 47 | 1019.3 |
| 20260508190038 | 49 | 132 | 5.0 | 0.0 | 0.00 | 0.00 | 0.02 | 46 | 1019.3 |
| 20260508184528 | 49 | 96 | 5.0 | 0.0 | 0.00 | 0.00 | 0.02 | 46 | 1019.4 |
| 20260508183028 | 49 | 103 | 4.0 | 0.0 | 0.00 | 0.00 | 0.02 | 46 | 1019.5 |
| 20260508181527 | 49 | 86 | 4.0 | 0.0 | 0.00 | 0.00 | 0.02 | 44 | 1019.6 |
| 20260508180028 | 49 | 101 | 5.0 | 0.0 | 0.00 | 0.00 | 0.02 | 44 | 1019.6 |
| 20260508174540 | 50 | 96 | 4.0 | 0.0 | 0.00 | 0.00 | 0.02 | 44 | 1019.7 |
| 20260508173031 | 50 | 107 | 6.0 | 0.0 | 0.00 | 0.00 | 0.02 | 42 | 1019.6 |
| 20260508171526 | 51 | 134 | 4.0 | 0.0 | 0.00 | 0.00 | 0.02 | 41 | 1019.7 |
| 20260508170031 | 50 | 92 | 6.0 | 0.0 | 0.00 | 0.00 | 0.02 | 41 | 1019.8 |
| 20260508164525 | 51 | 134 | 6.0 | 0.0 | 0.00 | 0.00 | 0.02 | 40 | 1019.9 |
| 20260508163039 | 51 | 74 | 6.0 | 0.0 | 0.00 | 0.00 | 0.02 | 41 | 1019.9 |
| 20260508161524 | 53 | 82 | 4.0 | 0.0 | 0.00 | 0.00 | 0.02 | 39 | 1020.1 |
| 20260508160026 | 51 | 109 | 6.0 | 0.0 | 0.00 | 0.00 | 0.02 | 40 | 1019.9 |
| 20260508154523 | 51 | 145 | 5.0 | 0.0 | 0.00 | 0.00 | 0.02 | 41 | 1020.0 |
| 20260508153028 | 52 | 135 | 4.0 | 0.0 | 0.00 | 0.00 | 0.02 | 39 | 1020.1 |
| 20260508151528 | 52 | 145 | 4.0 | 0.0 | 0.00 | 0.00 | 0.02 | 40 | 1020.1 |
| 20260508150027 | 50 | 81 | 5.0 | 0.0 | 0.00 | 0.00 | 0.02 | 41 | 1020.3 |
| 20260508144520 | 50 | 67 | 6.0 | 0.0 | 0.00 | 0.00 | 0.02 | 44 | 1020.4 |
| 20260508143019 | 51 | 87 | 6.0 | 0.0 | 0.00 | 0.00 | 0.02 | 45 | 1020.5 |
| 20260508141518 | 50 | 97 | 5.0 | 0.0 | 0.00 | 0.00 | 0.02 | 46 | 1020.6 |
| 20260508140020 | 51 | 102 | 5.0 | 0.0 | 0.00 | 0.00 | 0.02 | 45 | 1020.8 |
| 20260508134523 | 51 | 82 | 6.0 | 0.0 | 0.00 | 0.00 | 0.02 | 47 | 1021.0 |
| 20260508133018 | 51 | 103 | 5.0 | 0.0 | 0.00 | 0.00 | 0.02 | 46 | 1021.1 |
| 20260508131517 | 50 | 109 | 4.0 | 0.0 | 0.00 | 0.00 | 0.02 | 46 | 1021.2 |
| 20260508130016 | 50 | 75 | 6.0 | 0.0 | 0.00 | 0.00 | 0.02 | 46 | 1021.4 |
| 20260508124516 | 50 | 77 | 6.0 | 0.0 | 0.00 | 0.00 | 0.02 | 46 | 1021.4 |
| 20260508123014 | 51 | 92 | 3.0 | 0.0 | 0.00 | 0.00 | 0.02 | 45 | 1021.4 |
| 20260508121516 | 51 | 95 | 4.0 | 0.0 | 0.00 | 0.00 | 0.02 | 45 | 1021.3 |
| 20260508120011 | 51 | 103 | 4.0 | 0.0 | 0.00 | 0.00 | 0.02 | 49 | 1021.2 |
| 20260508114509 | 49 | 89 | 4.0 | 0.0 | 0.00 | 0.00 | 0.02 | 51 | 1021.4 |
| 20260508113007 | 49 | 94 | 4.0 | 0.0 | 0.00 | 0.00 | 0.02 | 49 | 1021.4 |
| 20260508111506 | 49 | 132 | 6.0 | 0.0 | 0.00 | 0.00 | 0.02 | 51 | 1021.4 |
| 20260508110003 | 52 | 80 | 2.0 | 0.0 | 0.00 | 0.00 | 0.02 | 48 | 1021.4 |
| 20260508104605 | 52 | 173 | 2.0 | 0.0 | 0.00 | 0.00 | 0.02 | 50 | 1021.5 |
| 20260508103058 | 50 | 93 | 2.0 | 0.0 | 0.00 | 0.00 | 0.02 | 51 | 1021.6 |
| 20260508101556 | 48 | 302 | 2.0 | 0.0 | 0.00 | 0.00 | 0.02 | 54 | 1021.6 |
| 20260508100049 | 46 | 206 | 1.0 | 0.0 | 0.00 | 0.00 | 0.02 | 58 | 1021.7 |
| 20260508094554 | 46 | 248 | 1.0 | 0.0 | 0.00 | 0.00 | 0.02 | 63 | 1021.9 |
| 20260508093055 | 46 | 254 | 1.0 | 0.0 | 0.00 | 0.00 | 0.02 | 62 | 1022.0 |
| 20260508091543 | 45 | 258 | 1.0 | 0.0 | 0.00 | 0.00 | 0.02 | 64 | 1021.8 |
| 20260508084538 | 46 | 318 | 2.0 | 0.0 | 0.00 | 0.00 | 0.02 | 63 | 1021.9 |
| 20260508083036 | 45 | 209 | 2.0 | 0.0 | 0.00 | 0.00 | 0.02 | 69 | 1021.7 |
| 20260508081531 | 45 | 310 | 0.0 | 0.0 | 0.00 | 0.00 | 0.02 | 72 | 1021.6 |
| 20260508080036 | 44 | 317 | 1.0 | 0.0 | 0.00 | 0.00 | 0.02 | 75 | 1021.6 |
| 20260508074535 | 44 | 327 | 0.0 | 0.0 | 0.00 | 0.00 | 0.02 | 75 | 1021.5 |
| 20260508073023 | 44 | 40 | 2.0 | 0.0 | 0.00 | 0.00 | 0.02 | 77 | 1021.4 |
| 20260508071525 | 44 | 44 | 2.0 | 0.0 | 0.00 | 0.00 | 0.02 | 80 | 1021.5 |
| 20260508070014 | 42 | 51 | 2.0 | 0.0 | 0.00 | 0.00 | 0.02 | 85 | 1021.3 |